Terminal Aerodrome Forecast
Issued by NWS

Home | Current Version | Previous Version | Text Only | Print | Product List | Glossary Off
Versions: 1 2 3 4 5 6 7 8 9 10 11 12 13 14

000
FTUS43 KGRB 040500
TAFAUW
TAF
KAUW 040528Z 0406/0506 33005KT P6SM BKN090
     FM040900 35006KT P6SM SCT250
     FM041500 01007KT P6SM SCT250
     FM050000 08005KT P6SM SCT250=

USA.gov is the U.S. government's official web portal to all federal, state and local government web resources and services.